createdAt,value
2019-05-05T00:01:24.990Z,89.60
2019-05-05T00:06:29.655Z,89.10
2019-05-05T00:11:36.471Z,88.50
2019-05-05T00:16:55.075Z,92.10
2019-05-05T00:22:00.183Z,90.90
2019-05-05T00:27:05.289Z,89.90
2019-05-05T00:32:10.444Z,96.00
2019-05-05T00:37:15.487Z,96.00
2019-05-05T00:42:20.571Z,97.60
2019-05-05T00:47:42.479Z,98.40
2019-05-05T00:52:47.527Z,98.50
2019-05-05T00:57:54.665Z,99.00
2019-05-05T01:02:59.695Z,99.50
2019-05-05T01:08:06.516Z,99.00
2019-05-05T01:13:11.719Z,96.60
2019-05-05T01:18:16.859Z,92.20
2019-05-05T01:23:24.275Z,96.00
2019-05-05T01:28:28.822Z,98.00
2019-05-05T01:33:41.755Z,98.10
2019-05-05T01:38:48.583Z,98.70
2019-05-05T01:43:54.755Z,97.70
2019-05-05T01:48:59.695Z,96.30
2019-05-05T01:54:05.429Z,98.60
2019-05-05T01:59:10.771Z,99.20
2019-05-05T02:04:15.882Z,98.80
2019-05-05T02:09:21.000Z,99.80
2019-05-05T02:14:26.151Z,99.90
2019-05-05T02:19:31.239Z,99.90
2019-05-05T02:24:36.415Z,99.90
2019-05-05T02:29:44.638Z,99.90
2019-05-05T02:34:51.447Z,99.90
2019-05-05T02:40:02.515Z,99.90
2019-05-05T02:45:06.161Z,99.90
2019-05-05T02:50:11.344Z,99.90
2019-05-05T02:55:19.096Z,99.90
2019-05-05T03:00:25.823Z,99.90
2019-05-05T03:05:31.134Z,99.90
2019-05-05T03:10:36.351Z,99.90
2019-05-05T03:15:55.003Z,99.90
2019-05-05T03:21:04.639Z,99.90
2019-05-05T03:26:08.035Z,99.90
2019-05-05T03:31:16.116Z,99.90
2019-05-05T03:36:21.371Z,99.90
2019-05-05T03:41:40.898Z,99.90
2019-05-05T03:46:45.978Z,99.90
2019-05-05T03:51:51.159Z,99.90
2019-05-05T03:57:08.427Z,99.90
2019-05-05T04:02:20.978Z,99.90
2019-05-05T04:07:25.878Z,99.90
2019-05-05T04:12:34.582Z,99.90
2019-05-05T04:17:56.395Z,99.90
2019-05-05T04:23:03.570Z,99.90
2019-05-05T04:28:08.074Z,99.90
2019-05-05T04:33:14.206Z,99.90
2019-05-05T04:38:19.386Z,99.90
2019-05-05T04:43:24.708Z,99.90
2019-05-05T04:48:37.171Z,99.90
2019-05-05T04:54:00.132Z,99.90
2019-05-05T04:59:05.353Z,99.80
2019-05-05T05:04:17.691Z,99.90
2019-05-05T05:09:23.783Z,99.70
2019-05-05T05:14:28.883Z,99.70
2019-05-05T05:19:33.927Z,99.70
2019-05-05T05:24:38.907Z,99.20
2019-05-05T05:29:43.991Z,98.80
2019-05-05T05:34:48.998Z,98.90
2019-05-05T05:39:58.349Z,98.50
2019-05-05T05:45:08.583Z,98.40
2019-05-05T05:50:27.735Z,97.90
2019-05-05T05:55:34.252Z,98.20
2019-05-05T06:00:41.696Z,97.40
2019-05-05T06:05:46.091Z,97.60
2019-05-05T06:10:51.108Z,97.20
2019-05-05T06:15:56.096Z,96.80
2019-05-05T06:21:01.111Z,95.70
2019-05-05T06:26:07.148Z,95.50
2019-05-05T06:31:13.981Z,94.80
2019-05-05T06:36:19.078Z,93.60
2019-05-05T06:41:25.767Z,94.30
2019-05-05T06:46:44.607Z,92.50
2019-05-05T06:51:49.647Z,92.10
2019-05-05T06:56:54.902Z,91.80
2019-05-05T07:01:59.999Z,90.90
2019-05-05T07:07:05.345Z,90.00
2019-05-05T07:12:10.417Z,90.70
2019-05-05T07:17:15.371Z,90.50
2019-05-05T07:22:20.654Z,90.40
2019-05-05T07:27:25.654Z,85.10
2019-05-05T07:32:30.681Z,83.30
2019-05-05T07:37:35.751Z,78.40
2019-05-05T07:42:40.763Z,77.90
2019-05-05T07:47:47.397Z,75.00
2019-05-05T07:52:54.438Z,77.80
2019-05-05T07:57:59.260Z,74.00
2019-05-05T08:03:04.360Z,74.90
2019-05-05T08:08:09.399Z,68.80
2019-05-05T08:13:14.407Z,69.00
2019-05-05T08:18:21.015Z,65.00
2019-05-05T08:23:35.477Z,64.40
2019-05-05T08:28:43.488Z,67.10
2019-05-05T08:33:48.599Z,63.60
2019-05-05T08:38:54.616Z,62.60
2019-05-05T08:43:59.710Z,64.80
2019-05-05T08:49:04.827Z,65.30
2019-05-05T08:54:09.915Z,61.10
2019-05-05T08:59:14.863Z,62.70
2019-05-05T09:04:19.951Z,61.20
2019-05-05T09:09:25.058Z,59.40
2019-05-05T09:14:30.079Z,58.10
2019-05-05T09:19:35.192Z,54.60
2019-05-05T09:24:45.043Z,53.80
2019-05-05T09:29:50.023Z,55.60
2019-05-05T09:34:55.104Z,51.20
2019-05-05T09:40:00.226Z,53.20
2019-05-05T09:45:10.171Z,55.80
2019-05-05T09:50:16.893Z,55.10
2019-05-05T09:55:24.090Z,53.00
2019-05-05T10:00:30.279Z,53.10
2019-05-05T10:05:35.297Z,52.20
2019-05-05T10:10:40.306Z,52.30
2019-05-05T10:15:45.396Z,53.40
2019-05-05T10:20:50.574Z,51.70
2019-05-05T10:25:57.422Z,55.00
2019-05-05T10:31:04.606Z,52.90
2019-05-05T10:36:09.341Z,52.60
2019-05-05T10:41:14.489Z,50.00
2019-05-05T10:46:19.599Z,50.10
2019-05-05T10:51:24.687Z,51.70
2019-05-05T10:56:29.736Z,50.90
2019-05-05T11:01:34.675Z,47.70
2019-05-05T11:06:40.391Z,51.30
2019-05-05T11:11:45.474Z,49.10
2019-05-05T11:16:50.580Z,47.70
2019-05-05T11:21:55.519Z,50.70
2019-05-05T11:27:00.527Z,46.50
2019-05-05T11:32:07.321Z,48.50
2019-05-05T11:37:14.160Z,45.30
2019-05-05T11:42:19.200Z,47.10
2019-05-05T11:47:24.593Z,47.90
2019-05-05T11:52:29.714Z,46.20
2019-05-05T11:57:43.813Z,46.90
2019-05-05T12:02:49.567Z,42.80
2019-05-05T12:07:54.660Z,43.70
2019-05-05T12:13:01.335Z,47.40
2019-05-05T12:18:06.420Z,42.40
2019-05-05T12:23:11.527Z,43.20
2019-05-05T12:28:24.316Z,41.80
2019-05-05T12:33:29.491Z,40.20
2019-05-05T12:38:34.836Z,40.00
2019-05-05T12:43:39.994Z,38.10
2019-05-05T12:48:46.751Z,40.10
2019-05-05T12:53:53.758Z,40.00
2019-05-05T12:58:58.395Z,43.40
2019-05-05T13:04:03.664Z,43.90
2019-05-05T13:09:09.154Z,48.00
2019-05-05T13:14:14.584Z,40.20
2019-05-05T13:19:27.249Z,39.70
2019-05-05T13:24:34.830Z,35.10
2019-05-05T13:29:39.954Z,37.40
2019-05-05T13:34:44.899Z,35.50
2019-05-05T13:39:49.983Z,33.50
2019-05-05T13:44:59.194Z,34.20
2019-05-05T13:50:09.119Z,38.70
2019-05-05T13:55:16.888Z,37.80
2019-05-05T14:00:22.287Z,38.70
2019-05-05T14:05:27.471Z,35.50
2019-05-05T14:10:32.634Z,36.90
2019-05-05T14:15:37.847Z,39.30
2019-05-05T14:20:43.589Z,38.40
2019-05-05T14:25:48.870Z,41.40
2019-05-05T14:30:55.523Z,42.90
2019-05-05T14:36:04.979Z,42.40
2019-05-05T14:41:10.016Z,42.10
2019-05-05T14:46:15.051Z,42.90
2019-05-05T14:51:20.203Z,43.80
2019-05-05T14:56:35.592Z,53.30
2019-05-05T15:01:34.236Z,47.30
2019-05-05T15:06:43.968Z,41.20
2019-05-05T15:11:56.704Z,47.50
2019-05-05T15:17:03.635Z,45.30
2019-05-05T15:22:08.518Z,43.10
2019-05-05T15:27:13.555Z,49.50
2019-05-05T15:32:18.668Z,40.90
2019-05-05T15:37:23.904Z,45.50
2019-05-05T15:42:28.904Z,40.70
2019-05-05T15:47:34.429Z,36.40
2019-05-05T15:52:40.392Z,39.40
2019-05-05T15:57:45.478Z,36.30
2019-05-05T16:02:50.514Z,34.50
2019-05-05T16:07:55.569Z,34.90
2019-05-05T16:13:00.769Z,34.40
2019-05-05T16:18:23.971Z,33.40
2019-05-05T16:23:35.600Z,28.30
2019-05-05T16:28:40.244Z,26.20
2019-05-05T16:33:45.259Z,24.20
2019-05-05T16:38:50.346Z,24.90
2019-05-05T16:43:55.436Z,24.10
2019-05-05T16:49:00.542Z,24.40
2019-05-05T16:54:07.480Z,24.50
2019-05-05T16:59:13.891Z,25.10
2019-05-05T17:04:19.202Z,26.10
2019-05-05T17:09:24.317Z,27.10
2019-05-05T17:14:30.936Z,28.40
2019-05-05T17:19:37.641Z,28.70
2019-05-05T17:24:44.051Z,29.30
2019-05-05T17:29:49.219Z,28.00
2019-05-05T17:34:55.017Z,30.90
2019-05-05T17:40:04.546Z,28.60
2019-05-05T17:45:26.951Z,32.60
2019-05-05T17:50:49.815Z,36.40
2019-05-05T17:55:56.643Z,37.30
2019-05-05T18:01:03.674Z,40.50
2019-05-05T18:06:14.346Z,42.70
2019-05-05T18:11:35.019Z,42.40
2019-05-05T18:16:39.643Z,42.90
2019-05-05T18:21:44.764Z,45.80
2019-05-05T18:26:49.780Z,43.30
2019-05-05T18:31:54.811Z,48.50
2019-05-05T18:36:59.762Z,48.20
2019-05-05T18:42:13.956Z,51.70
2019-05-05T18:47:20.169Z,58.40
2019-05-05T18:52:25.351Z,61.50
2019-05-05T18:57:30.561Z,61.60
2019-05-05T19:02:53.620Z,59.80
2019-05-05T19:08:17.652Z,61.80
2019-05-05T19:13:24.473Z,63.40
2019-05-05T19:18:29.839Z,66.00
2019-05-05T19:23:35.619Z,67.60
2019-05-05T19:28:44.629Z,69.10
2019-05-05T19:33:47.539Z,69.60
2019-05-05T19:38:54.738Z,69.10
2019-05-05T19:44:01.831Z,71.50
2019-05-05T19:49:16.655Z,70.70
2019-05-05T19:54:21.608Z,68.20
2019-05-05T19:59:26.627Z,68.00
2019-05-05T20:04:33.603Z,66.30
2019-05-05T20:09:38.298Z,65.50
2019-05-05T20:14:43.627Z,62.60
2019-05-05T20:19:48.783Z,62.10
2019-05-05T20:24:54.867Z,62.50
2019-05-05T20:29:59.915Z,61.50
2019-05-05T20:35:09.995Z,60.40
2019-05-05T20:40:16.818Z,59.70
2019-05-05T20:45:23.858Z,59.40
2019-05-05T20:50:29.099Z,60.10
2019-05-05T20:55:34.188Z,61.00
2019-05-05T21:00:39.515Z,62.00
2019-05-05T21:05:44.587Z,62.40
2019-05-05T21:10:49.703Z,63.30
2019-05-05T21:15:54.708Z,63.30
2019-05-05T21:21:01.473Z,63.90
2019-05-05T21:26:08.219Z,65.00
2019-05-05T21:31:14.475Z,66.00
2019-05-05T21:36:19.678Z,68.20
2019-05-05T21:41:24.670Z,68.40
2019-05-05T21:46:30.843Z,69.50
2019-05-05T21:51:40.123Z,71.30
2019-05-05T21:56:46.863Z,72.10
2019-05-05T22:01:52.050Z,72.10
2019-05-05T22:06:57.511Z,73.70
2019-05-05T22:12:04.150Z,73.90
2019-05-05T22:17:10.395Z,74.80
2019-05-05T22:22:17.063Z,74.60
2019-05-05T22:27:23.788Z,75.70
2019-05-05T22:32:29.928Z,76.50
2019-05-05T22:37:35.036Z,77.40
2019-05-05T22:42:40.003Z,76.40
2019-05-05T22:47:45.112Z,76.50
2019-05-05T22:52:50.191Z,78.30
2019-05-05T22:57:55.267Z,77.40
2019-05-05T23:03:04.334Z,77.70
2019-05-05T23:08:09.022Z,79.00
2019-05-05T23:13:14.155Z,79.60
2019-05-05T23:18:26.711Z,80.00
2019-05-05T23:23:37.308Z,82.60
2019-05-05T23:28:44.269Z,82.00
2019-05-05T23:33:48.855Z,79.30
2019-05-05T23:38:54.849Z,80.40
2019-05-05T23:44:00.204Z,79.60
2019-05-05T23:49:05.230Z,80.00
2019-05-05T23:54:10.201Z,79.60
2019-05-05T23:59:15.159Z,82.80
